createdAt,value
2018-06-11T00:00:45.072Z,19.30
2018-06-11T00:06:14.397Z,19.30
2018-06-11T00:11:43.903Z,19.20
2018-06-11T00:17:13.227Z,19.20
2018-06-11T00:22:42.450Z,19.10
2018-06-11T00:28:11.816Z,19.00
2018-06-11T00:33:41.264Z,19.00
2018-06-11T00:39:10.568Z,18.90
2018-06-11T00:44:39.932Z,18.80
2018-06-11T00:50:09.251Z,18.70
2018-06-11T01:01:39.956Z,18.70
2018-06-11T01:07:09.323Z,18.60
2018-06-11T01:12:38.748Z,18.50
2018-06-11T01:18:08.005Z,18.50
2018-06-11T01:23:37.231Z,18.50
2018-06-11T01:29:06.492Z,18.50
2018-06-11T01:34:35.788Z,18.40
2018-06-11T01:40:05.118Z,18.40
2018-06-11T01:45:34.498Z,18.40
2018-06-11T01:51:03.796Z,18.50
2018-06-11T01:56:33.014Z,18.40
2018-06-11T02:02:02.207Z,18.50
2018-06-11T02:07:31.517Z,18.40
2018-06-11T02:13:00.767Z,18.40
2018-06-11T02:18:30.071Z,18.40
2018-06-11T02:23:59.258Z,18.40
2018-06-11T02:29:28.470Z,18.30
2018-06-11T02:34:57.717Z,18.30
2018-06-11T02:40:26.991Z,18.20
2018-06-11T02:45:56.210Z,18.20
2018-06-11T02:51:26.134Z,18.20
2018-06-11T02:56:55.377Z,18.10
2018-06-11T03:02:24.588Z,18.10
2018-06-11T03:07:53.890Z,18.10
2018-06-11T03:13:24.044Z,18.00
2018-06-11T03:18:53.404Z,18.00
2018-06-11T03:24:22.705Z,18.00
2018-06-11T03:29:51.990Z,17.90
2018-06-11T03:35:21.305Z,18.00
2018-06-11T03:40:50.504Z,18.00
2018-06-11T03:46:19.746Z,18.00
2018-06-11T03:51:49.014Z,18.00
2018-06-11T03:57:18.280Z,18.10
2018-06-11T04:02:47.752Z,18.20
2018-06-11T04:08:17.024Z,18.20
2018-06-11T04:13:46.434Z,18.30
2018-06-11T04:19:15.816Z,18.40
2018-06-11T04:24:45.177Z,18.50
2018-06-11T04:30:14.602Z,18.70
2018-06-11T04:35:43.987Z,18.90
2018-06-11T04:41:13.503Z,19.00
2018-06-11T04:46:42.982Z,19.20
2018-06-11T04:52:12.710Z,19.40
2018-06-11T04:57:42.033Z,19.60
2018-06-11T05:03:11.435Z,19.80
2018-06-11T05:08:40.806Z,20.00
2018-06-11T05:14:10.162Z,20.10
2018-06-11T05:19:39.517Z,20.30
2018-06-11T05:25:08.774Z,20.60
2018-06-11T05:30:38.058Z,20.70
2018-06-11T05:36:07.930Z,21.00
2018-06-11T05:41:37.582Z,21.30
2018-06-11T05:47:06.905Z,21.50
2018-06-11T05:52:36.202Z,21.80
2018-06-11T05:58:05.509Z,22.10
2018-06-11T06:03:34.728Z,22.20
2018-06-11T06:09:05.331Z,22.40
2018-06-11T06:14:34.605Z,22.70
2018-06-11T06:20:03.918Z,22.80
2018-06-11T06:25:33.263Z,23.10
2018-06-11T06:31:02.588Z,23.30
2018-06-11T06:36:31.963Z,23.50
2018-06-11T06:42:01.258Z,23.80
2018-06-11T06:47:30.698Z,23.90
2018-06-11T06:52:59.966Z,24.20
2018-06-11T06:58:29.242Z,24.30
2018-06-11T07:03:58.493Z,24.50
2018-06-11T07:09:27.801Z,24.60
2018-06-11T07:14:57.067Z,24.80
2018-06-11T07:20:26.337Z,24.90
2018-06-11T07:25:56.676Z,25.00
2018-06-11T07:31:25.949Z,25.10
2018-06-11T07:36:55.183Z,25.30
2018-06-11T07:42:24.552Z,25.40
2018-06-11T07:47:53.845Z,25.60
2018-06-11T07:53:23.159Z,25.80
2018-06-11T07:58:52.421Z,25.90
2018-06-11T08:04:21.686Z,26.10
2018-06-11T08:09:50.892Z,26.30
2018-06-11T08:15:20.257Z,26.40
2018-06-11T08:20:49.597Z,26.50
2018-06-11T08:26:19.110Z,26.50
2018-06-11T08:31:48.512Z,26.60
2018-06-11T08:37:17.950Z,26.70
2018-06-11T08:42:47.245Z,26.80
2018-06-11T08:48:16.651Z,27.00
2018-06-11T08:53:47.768Z,27.30
2018-06-11T08:59:17.257Z,27.30
2018-06-11T09:04:46.737Z,27.40
2018-06-11T09:10:16.637Z,27.50
2018-06-11T09:15:45.993Z,27.80
2018-06-11T09:21:15.345Z,28.10
2018-06-11T09:26:44.728Z,28.20
2018-06-11T09:32:14.028Z,28.30
2018-06-11T09:37:43.605Z,28.50
2018-06-11T09:43:13.052Z,28.70
2018-06-11T09:48:42.509Z,28.70
2018-06-11T09:54:11.896Z,28.80
2018-06-11T09:59:41.230Z,28.80
2018-06-11T10:05:10.558Z,28.80
2018-06-11T10:10:39.763Z,28.90
2018-06-11T10:16:09.034Z,29.30
2018-06-11T10:21:38.272Z,29.50
2018-06-11T10:27:08.632Z,29.80
2018-06-11T10:32:37.914Z,29.90
2018-06-11T10:38:07.147Z,30.10
2018-06-11T10:43:36.413Z,30.20
2018-06-11T10:49:05.664Z,30.20
2018-06-11T10:54:34.892Z,30.30
2018-06-11T11:00:04.205Z,30.20
2018-06-11T11:05:33.501Z,30.20
2018-06-11T11:11:02.799Z,30.30
2018-06-11T11:16:32.106Z,30.10
2018-06-11T11:22:01.494Z,30.30
2018-06-11T11:27:30.817Z,30.20
2018-06-11T11:33:00.072Z,30.40
2018-06-11T11:38:29.305Z,30.30
2018-06-11T11:43:58.590Z,30.40
2018-06-11T11:49:28.024Z,30.60
2018-06-11T11:54:57.261Z,30.60
2018-06-11T12:00:26.579Z,30.60
2018-06-11T12:05:55.810Z,30.60
2018-06-11T12:11:25.113Z,30.70
2018-06-11T12:22:23.424Z,30.40
2018-06-11T12:27:52.721Z,30.40
2018-06-11T12:33:22.102Z,30.30
2018-06-11T12:38:51.498Z,30.30
2018-06-11T12:44:21.913Z,30.10
2018-06-11T12:49:51.217Z,29.90
2018-06-11T12:55:20.490Z,29.90
2018-06-11T13:00:49.856Z,30.10
2018-06-11T13:11:48.157Z,30.50
2018-06-11T13:17:17.567Z,30.20
2018-06-11T13:22:46.882Z,29.80
2018-06-11T13:28:16.224Z,29.40
2018-06-11T13:33:46.308Z,29.10
2018-06-11T13:39:15.946Z,28.80
2018-06-11T13:44:45.502Z,28.50
2018-06-11T13:50:16.100Z,28.20
2018-06-11T13:55:46.472Z,27.90
2018-06-11T14:01:16.193Z,27.70
2018-06-11T14:06:45.795Z,27.50
2018-06-11T14:12:15.260Z,27.30
2018-06-11T14:17:44.717Z,27.10
2018-06-11T14:23:14.396Z,26.90
2018-06-11T14:28:43.935Z,26.80
2018-06-11T14:34:13.424Z,27.00
2018-06-11T14:45:12.121Z,27.80
2018-06-11T14:50:41.652Z,28.30
2018-06-11T14:56:11.065Z,28.90
2018-06-11T15:01:40.469Z,29.80
2018-06-11T15:07:09.951Z,30.40
2018-06-11T15:12:39.407Z,29.50
2018-06-11T15:18:08.651Z,28.90
2018-06-11T15:23:49.656Z,28.30
2018-06-11T15:29:19.081Z,28.00
2018-06-11T15:34:48.373Z,27.70
2018-06-11T15:40:17.756Z,27.60
2018-06-11T15:45:47.299Z,27.40
2018-06-11T15:51:16.767Z,27.30
2018-06-11T15:56:48.888Z,27.20
2018-06-11T16:02:20.041Z,27.20
2018-06-11T16:07:49.929Z,27.10
2018-06-11T16:13:22.410Z,27.10
2018-06-11T16:18:57.278Z,26.90
2018-06-11T16:29:55.783Z,27.30
2018-06-11T16:35:25.156Z,27.10
2018-06-11T16:40:55.729Z,27.00
2018-06-11T16:46:26.862Z,27.00
2018-06-11T16:51:57.287Z,26.90
2018-06-11T16:57:27.536Z,26.80
2018-06-11T17:02:57.203Z,26.70
2018-06-11T17:08:29.879Z,26.70
2018-06-11T17:13:59.334Z,26.60
2018-06-11T17:19:28.808Z,26.50
2018-06-11T17:24:58.206Z,26.40
2018-06-11T17:30:27.707Z,26.40
2018-06-11T17:35:58.114Z,26.40
2018-06-11T17:41:27.600Z,26.30
2018-06-11T17:47:23.733Z,26.20
2018-06-11T17:52:53.607Z,26.20
2018-06-11T17:58:25.519Z,26.00
2018-06-11T18:03:58.064Z,25.60
2018-06-11T18:09:28.609Z,25.20
2018-06-11T18:15:04.559Z,24.90
2018-06-11T18:20:48.004Z,24.40
2018-06-11T18:26:22.591Z,23.90
2018-06-11T18:31:53.756Z,23.60
2018-06-11T18:37:26.917Z,23.40
2018-06-11T18:42:57.492Z,23.10
2018-06-11T18:48:44.585Z,22.70
2018-06-11T18:54:17.419Z,22.40
2018-06-11T18:59:59.674Z,22.20
2018-06-11T19:05:30.542Z,22.10
2018-06-11T19:11:15.130Z,21.90
2018-06-11T19:16:50.447Z,21.80
2018-06-11T19:22:25.027Z,21.60
2018-06-11T19:28:01.550Z,21.50
2018-06-11T19:33:51.341Z,21.40
2018-06-11T19:39:25.013Z,21.30
2018-06-11T19:44:54.443Z,21.20
2018-06-11T19:50:24.617Z,21.10
2018-06-11T19:55:54.330Z,21.00
2018-06-11T20:01:25.646Z,20.90
2018-06-11T20:06:58.469Z,20.80
2018-06-11T20:12:37.209Z,20.60
2018-06-11T20:18:18.137Z,20.50
2018-06-11T20:23:48.521Z,20.40
2018-06-11T20:29:18.889Z,20.30
2018-06-11T20:34:48.593Z,20.10
2018-06-11T20:40:19.989Z,20.00
2018-06-11T20:45:50.222Z,19.90
2018-06-11T20:51:20.147Z,19.80
2018-06-11T20:56:50.840Z,19.70
2018-06-11T21:02:21.688Z,19.70
2018-06-11T21:07:51.652Z,19.70
2018-06-11T21:13:22.627Z,19.70
2018-06-11T21:18:52.463Z,19.80
2018-06-11T21:24:23.554Z,19.80
2018-06-11T21:30:00.021Z,19.80
2018-06-11T21:35:35.534Z,19.70
2018-06-11T21:41:04.888Z,19.70
2018-06-11T21:46:34.220Z,20.10
2018-06-11T21:52:03.720Z,19.80
2018-06-11T21:57:36.780Z,19.70
2018-06-11T22:03:06.147Z,19.70
2018-06-11T22:08:35.352Z,19.60
2018-06-11T22:14:04.642Z,19.50
2018-06-11T22:19:33.848Z,19.40
2018-06-11T22:25:03.198Z,19.40
2018-06-11T22:30:33.851Z,19.40
2018-06-11T22:36:03.155Z,19.50
2018-06-11T22:41:32.428Z,19.40
2018-06-11T22:47:01.645Z,19.40
2018-06-11T22:52:30.878Z,19.40
2018-06-11T22:58:01.090Z,19.30
2018-06-11T23:03:30.357Z,19.20
2018-06-11T23:08:59.624Z,19.20
2018-06-11T23:14:28.970Z,19.10
2018-06-11T23:19:58.237Z,19.10
2018-06-11T23:25:27.665Z,19.00
2018-06-11T23:30:56.899Z,18.90
2018-06-11T23:36:26.193Z,18.80
2018-06-11T23:53:53.295Z,18.70
2018-06-11T23:59:22.791Z,18.60
